sensor_id;sensor_type;location;lat;lon;timestamp;P1;durP1;ratioP1;P2;durP2;ratioP2
13202;SDS011;6666;51.626;7.530;2023-11-19T00:00:54;5.60;;;2.70;;
13202;SDS011;6666;51.626;7.530;2023-11-19T00:03:22;3.20;;;2.20;;
13202;SDS011;6666;51.626;7.530;2023-11-19T00:05:50;2.65;;;2.30;;
13202;SDS011;6666;51.626;7.530;2023-11-19T00:08:18;2.03;;;1.83;;
13202;SDS011;6666;51.626;7.530;2023-11-19T00:10:46;2.92;;;2.10;;
13202;SDS011;6666;51.626;7.530;2023-11-19T00:13:14;3.58;;;3.22;;
13202;SDS011;6666;51.626;7.530;2023-11-19T00:15:44;5.00;;;3.55;;
13202;SDS011;6666;51.626;7.530;2023-11-19T00:18:14;3.25;;;2.70;;
13202;SDS011;6666;51.626;7.530;2023-11-19T00:20:42;3.00;;;1.90;;
13202;SDS011;6666;51.626;7.530;2023-11-19T00:23:11;3.63;;;1.70;;
13202;SDS011;6666;51.626;7.530;2023-11-19T00:25:39;3.00;;;1.50;;
13202;SDS011;6666;51.626;7.530;2023-11-19T00:28:07;3.20;;;1.80;;
13202;SDS011;6666;51.626;7.530;2023-11-19T00:30:35;1.95;;;1.83;;
13202;SDS011;6666;51.626;7.530;2023-11-19T00:33:04;3.42;;;2.00;;
13202;SDS011;6666;51.626;7.530;2023-11-19T00:35:32;2.30;;;2.10;;
13202;SDS011;6666;51.626;7.530;2023-11-19T00:38:01;2.47;;;2.28;;
13202;SDS011;6666;51.626;7.530;2023-11-19T00:40:30;4.15;;;1.73;;
13202;SDS011;6666;51.626;7.530;2023-11-19T00:42:58;2.35;;;2.00;;
13202;SDS011;6666;51.626;7.530;2023-11-19T00:45:27;6.75;;;2.20;;
13202;SDS011;6666;51.626;7.530;2023-11-19T00:47:55;6.03;;;3.17;;
13202;SDS011;6666;51.626;7.530;2023-11-19T00:50:27;5.00;;;2.70;;
13202;SDS011;6666;51.626;7.530;2023-11-19T00:53:00;5.30;;;3.20;;
13202;SDS011;6666;51.626;7.530;2023-11-19T00:55:29;4.38;;;3.40;;
13202;SDS011;6666;51.626;7.530;2023-11-19T00:57:57;4.57;;;2.83;;
13202;SDS011;6666;51.626;7.530;2023-11-19T01:00:26;4.20;;;2.90;;
13202;SDS011;6666;51.626;7.530;2023-11-19T01:02:54;4.55;;;3.30;;
13202;SDS011;6666;51.626;7.530;2023-11-19T01:05:22;3.30;;;2.80;;
13202;SDS011;6666;51.626;7.530;2023-11-19T01:07:51;2.80;;;2.60;;
13202;SDS011;6666;51.626;7.530;2023-11-19T01:10:21;3.20;;;2.90;;
13202;SDS011;6666;51.626;7.530;2023-11-19T01:12:49;3.00;;;2.70;;
13202;SDS011;6666;51.626;7.530;2023-11-19T01:15:17;4.60;;;3.20;;
13202;SDS011;6666;51.626;7.530;2023-11-19T01:17:46;5.68;;;3.30;;
13202;SDS011;6666;51.626;7.530;2023-11-19T01:20:17;4.10;;;3.80;;
13202;SDS011;6666;51.626;7.530;2023-11-19T01:22:46;5.83;;;3.80;;
13202;SDS011;6666;51.626;7.530;2023-11-19T01:25:17;5.13;;;4.15;;
13202;SDS011;6666;51.626;7.530;2023-11-19T01:27:46;5.70;;;4.00;;
13202;SDS011;6666;51.626;7.530;2023-11-19T01:30:15;5.20;;;4.15;;
13202;SDS011;6666;51.626;7.530;2023-11-19T01:32:43;5.03;;;4.10;;
13202;SDS011;6666;51.626;7.530;2023-11-19T01:35:11;6.85;;;4.65;;
13202;SDS011;6666;51.626;7.530;2023-11-19T01:37:40;5.22;;;4.57;;
13202;SDS011;6666;51.626;7.530;2023-11-19T01:40:09;8.80;;;4.70;;
13202;SDS011;6666;51.626;7.530;2023-11-19T01:42:40;5.97;;;4.20;;
13202;SDS011;6666;51.626;7.530;2023-11-19T01:45:08;5.28;;;4.28;;
13202;SDS011;6666;51.626;7.530;2023-11-19T01:47:37;6.13;;;4.32;;
13202;SDS011;6666;51.626;7.530;2023-11-19T01:50:06;6.60;;;4.30;;
13202;SDS011;6666;51.626;7.530;2023-11-19T01:52:35;5.20;;;3.90;;
13202;SDS011;6666;51.626;7.530;2023-11-19T01:55:05;5.25;;;3.97;;
13202;SDS011;6666;51.626;7.530;2023-11-19T01:57:36;6.40;;;4.07;;
13202;SDS011;6666;51.626;7.530;2023-11-19T02:00:09;5.20;;;4.03;;
13202;SDS011;6666;51.626;7.530;2023-11-19T02:02:39;4.88;;;3.50;;
13202;SDS011;6666;51.626;7.530;2023-11-19T02:05:08;6.00;;;3.10;;
13202;SDS011;6666;51.626;7.530;2023-11-19T02:07:37;5.90;;;3.40;;
13202;SDS011;6666;51.626;7.530;2023-11-19T02:10:06;3.75;;;2.67;;
13202;SDS011;6666;51.626;7.530;2023-11-19T02:12:40;5.00;;;2.70;;
13202;SDS011;6666;51.626;7.530;2023-11-19T02:15:11;4.50;;;2.60;;
13202;SDS011;6666;51.626;7.530;2023-11-19T02:17:40;5.00;;;2.60;;
13202;SDS011;6666;51.626;7.530;2023-11-19T02:20:10;2.60;;;2.40;;
13202;SDS011;6666;51.626;7.530;2023-11-19T02:22:41;4.37;;;2.57;;
13202;SDS011;6666;51.626;7.530;2023-11-19T02:25:12;3.40;;;2.65;;
13202;SDS011;6666;51.626;7.530;2023-11-19T02:27:51;3.50;;;2.60;;
13202;SDS011;6666;51.626;7.530;2023-11-19T02:30:23;2.70;;;2.50;;
13202;SDS011;6666;51.626;7.530;2023-11-19T02:32:53;3.22;;;2.92;;
13202;SDS011;6666;51.626;7.530;2023-11-19T02:35:23;7.63;;;2.80;;
13202;SDS011;6666;51.626;7.530;2023-11-19T02:37:52;2.97;;;2.67;;
13202;SDS011;6666;51.626;7.530;2023-11-19T02:40:21;3.97;;;3.00;;
13202;SDS011;6666;51.626;7.530;2023-11-19T02:42:52;4.00;;;2.58;;
13202;SDS011;6666;51.626;7.530;2023-11-19T02:45:22;4.40;;;2.90;;
13202;SDS011;6666;51.626;7.530;2023-11-19T02:47:50;4.05;;;2.80;;
13202;SDS011;6666;51.626;7.530;2023-11-19T02:50:19;5.47;;;3.10;;
13202;SDS011;6666;51.626;7.530;2023-11-19T02:52:53;4.50;;;2.70;;
13202;SDS011;6666;51.626;7.530;2023-11-19T02:55:24;5.47;;;3.00;;
13202;SDS011;6666;51.626;7.530;2023-11-19T02:57:56;5.90;;;3.00;;
13202;SDS011;6666;51.626;7.530;2023-11-19T03:00:26;8.57;;;3.40;;
13202;SDS011;6666;51.626;7.530;2023-11-19T03:03:02;7.25;;;3.58;;
13202;SDS011;6666;51.626;7.530;2023-11-19T03:05:44;7.60;;;3.33;;
13202;SDS011;6666;51.626;7.530;2023-11-19T03:08:13;7.28;;;3.10;;
13202;SDS011;6666;51.626;7.530;2023-11-19T03:10:45;6.60;;;3.05;;
13202;SDS011;6666;51.626;7.530;2023-11-19T03:13:15;8.18;;;3.47;;
13202;SDS011;6666;51.626;7.530;2023-11-19T03:15:43;9.82;;;3.13;;
13202;SDS011;6666;51.626;7.530;2023-11-19T03:18:12;7.13;;;2.67;;
13202;SDS011;6666;51.626;7.530;2023-11-19T03:20:40;14.60;;;3.42;;
13202;SDS011;6666;51.626;7.530;2023-11-19T03:23:08;9.63;;;3.28;;
13202;SDS011;6666;51.626;7.530;2023-11-19T03:25:37;10.33;;;3.10;;
13202;SDS011;6666;51.626;7.530;2023-11-19T03:28:05;11.85;;;3.50;;
13202;SDS011;6666;51.626;7.530;2023-11-19T03:30:34;9.07;;;3.08;;
13202;SDS011;6666;51.626;7.530;2023-11-19T03:33:02;12.52;;;2.90;;
13202;SDS011;6666;51.626;7.530;2023-11-19T03:35:31;9.93;;;2.90;;
13202;SDS011;6666;51.626;7.530;2023-11-19T03:38:00;8.27;;;3.03;;
13202;SDS011;6666;51.626;7.530;2023-11-19T03:40:29;10.32;;;3.33;;
13202;SDS011;6666;51.626;7.530;2023-11-19T03:42:57;16.23;;;3.17;;
13202;SDS011;6666;51.626;7.530;2023-11-19T03:45:25;8.53;;;3.30;;
13202;SDS011;6666;51.626;7.530;2023-11-19T03:47:55;10.10;;;3.10;;
13202;SDS011;6666;51.626;7.530;2023-11-19T03:50:23;7.97;;;3.33;;
13202;SDS011;6666;51.626;7.530;2023-11-19T03:52:51;13.88;;;3.97;;
13202;SDS011;6666;51.626;7.530;2023-11-19T03:55:19;12.25;;;3.10;;
13202;SDS011;6666;51.626;7.530;2023-11-19T03:57:47;11.80;;;3.03;;
13202;SDS011;6666;51.626;7.530;2023-11-19T04:00:16;11.02;;;3.10;;
13202;SDS011;6666;51.626;7.530;2023-11-19T04:02:47;11.40;;;3.37;;
13202;SDS011;6666;51.626;7.530;2023-11-19T04:05:17;10.90;;;3.00;;
13202;SDS011;6666;51.626;7.530;2023-11-19T04:07:46;12.67;;;3.20;;
13202;SDS011;6666;51.626;7.530;2023-11-19T04:10:14;8.23;;;3.20;;
13202;SDS011;6666;51.626;7.530;2023-11-19T04:12:43;12.85;;;3.20;;
13202;SDS011;6666;51.626;7.530;2023-11-19T04:15:12;8.07;;;3.03;;
13202;SDS011;6666;51.626;7.530;2023-11-19T04:17:40;12.35;;;3.00;;
13202;SDS011;6666;51.626;7.530;2023-11-19T04:20:09;11.18;;;3.70;;
13202;SDS011;6666;51.626;7.530;2023-11-19T04:22:42;18.60;;;3.60;;
13202;SDS011;6666;51.626;7.530;2023-11-19T04:25:10;14.38;;;3.60;;
13202;SDS011;6666;51.626;7.530;2023-11-19T04:27:38;16.90;;;3.72;;
13202;SDS011;6666;51.626;7.530;2023-11-19T04:30:08;17.00;;;3.33;;
13202;SDS011;6666;51.626;7.530;2023-11-19T04:32:37;18.02;;;3.47;;
13202;SDS011;6666;51.626;7.530;2023-11-19T04:35:06;18.30;;;4.00;;
13202;SDS011;6666;51.626;7.530;2023-11-19T04:37:35;18.67;;;3.80;;
13202;SDS011;6666;51.626;7.530;2023-11-19T04:40:05;16.92;;;3.25;;
13202;SDS011;6666;51.626;7.530;2023-11-19T04:42:34;16.73;;;4.32;;
13202;SDS011;6666;51.626;7.530;2023-11-19T04:45:03;19.27;;;4.07;;
13202;SDS011;6666;51.626;7.530;2023-11-19T04:47:32;19.08;;;4.10;;
13202;SDS011;6666;51.626;7.530;2023-11-19T04:50:01;14.52;;;3.53;;
13202;SDS011;6666;51.626;7.530;2023-11-19T04:52:29;20.98;;;4.60;;
13202;SDS011;6666;51.626;7.530;2023-11-19T04:54:58;18.23;;;3.75;;
13202;SDS011;6666;51.626;7.530;2023-11-19T04:57:27;18.67;;;3.60;;
13202;SDS011;6666;51.626;7.530;2023-11-19T04:59:55;16.27;;;3.33;;
13202;SDS011;6666;51.626;7.530;2023-11-19T05:02:23;19.38;;;3.83;;
13202;SDS011;6666;51.626;7.530;2023-11-19T05:04:52;15.95;;;3.30;;
13202;SDS011;6666;51.626;7.530;2023-11-19T05:07:20;15.48;;;3.10;;
13202;SDS011;6666;51.626;7.530;2023-11-19T05:09:48;10.38;;;2.70;;
13202;SDS011;6666;51.626;7.530;2023-11-19T05:12:16;18.05;;;3.40;;
13202;SDS011;6666;51.626;7.530;2023-11-19T05:14:46;18.17;;;2.92;;
13202;SDS011;6666;51.626;7.530;2023-11-19T05:17:17;18.98;;;3.22;;
13202;SDS011;6666;51.626;7.530;2023-11-19T05:19:45;17.98;;;3.75;;
13202;SDS011;6666;51.626;7.530;2023-11-19T05:22:14;15.00;;;3.50;;
13202;SDS011;6666;51.626;7.530;2023-11-19T05:24:42;20.10;;;3.38;;
13202;SDS011;6666;51.626;7.530;2023-11-19T05:27:10;20.00;;;3.50;;
13202;SDS011;6666;51.626;7.530;2023-11-19T05:29:39;22.50;;;3.70;;
13202;SDS011;6666;51.626;7.530;2023-11-19T05:32:10;19.95;;;3.85;;
13202;SDS011;6666;51.626;7.530;2023-11-19T05:34:38;24.27;;;5.18;;
13202;SDS011;6666;51.626;7.530;2023-11-19T05:37:09;18.03;;;3.70;;
13202;SDS011;6666;51.626;7.530;2023-11-19T05:39:38;19.92;;;3.70;;
13202;SDS011;6666;51.626;7.530;2023-11-19T05:42:06;25.05;;;4.95;;
13202;SDS011;6666;51.626;7.530;2023-11-19T05:44:34;23.17;;;4.40;;
13202;SDS011;6666;51.626;7.530;2023-11-19T05:47:06;17.53;;;3.70;;
13202;SDS011;6666;51.626;7.530;2023-11-19T05:49:36;21.40;;;4.30;;
13202;SDS011;6666;51.626;7.530;2023-11-19T05:52:04;26.83;;;4.82;;
13202;SDS011;6666;51.626;7.530;2023-11-19T05:54:36;27.17;;;4.90;;
13202;SDS011;6666;51.626;7.530;2023-11-19T05:57:04;22.10;;;4.40;;
13202;SDS011;6666;51.626;7.530;2023-11-19T05:59:35;20.05;;;4.10;;
13202;SDS011;6666;51.626;7.530;2023-11-19T06:02:04;28.83;;;4.57;;
13202;SDS011;6666;51.626;7.530;2023-11-19T06:04:32;24.75;;;4.95;;
13202;SDS011;6666;51.626;7.530;2023-11-19T06:07:01;20.30;;;4.50;;
13202;SDS011;6666;51.626;7.530;2023-11-19T06:09:30;28.02;;;4.53;;
13202;SDS011;6666;51.626;7.530;2023-11-19T06:12:00;25.40;;;4.63;;
13202;SDS011;6666;51.626;7.530;2023-11-19T06:14:28;19.43;;;4.30;;
13202;SDS011;6666;51.626;7.530;2023-11-19T06:16:56;23.80;;;4.78;;
13202;SDS011;6666;51.626;7.530;2023-11-19T06:19:23;18.92;;;3.78;;
13202;SDS011;6666;51.626;7.530;2023-11-19T06:21:56;25.93;;;4.33;;
13202;SDS011;6666;51.626;7.530;2023-11-19T06:24:26;25.55;;;5.50;;
13202;SDS011;6666;51.626;7.530;2023-11-19T06:26:54;25.83;;;4.73;;
13202;SDS011;6666;51.626;7.530;2023-11-19T06:29:22;21.35;;;4.82;;
13202;SDS011;6666;51.626;7.530;2023-11-19T06:31:50;19.60;;;4.40;;
13202;SDS011;6666;51.626;7.530;2023-11-19T06:34:18;23.95;;;4.13;;
13202;SDS011;6666;51.626;7.530;2023-11-19T06:36:47;23.45;;;4.97;;
13202;SDS011;6666;51.626;7.530;2023-11-19T06:39:15;22.38;;;4.30;;
13202;SDS011;6666;51.626;7.530;2023-11-19T06:41:46;24.70;;;4.10;;
13202;SDS011;6666;51.626;7.530;2023-11-19T06:44:15;24.05;;;4.10;;
13202;SDS011;6666;51.626;7.530;2023-11-19T06:46:43;23.50;;;4.97;;
13202;SDS011;6666;51.626;7.530;2023-11-19T06:49:11;22.67;;;4.50;;
13202;SDS011;6666;51.626;7.530;2023-11-19T06:51:41;22.35;;;4.82;;
13202;SDS011;6666;51.626;7.530;2023-11-19T06:54:10;23.48;;;4.70;;
13202;SDS011;6666;51.626;7.530;2023-11-19T06:56:38;22.25;;;4.28;;
13202;SDS011;6666;51.626;7.530;2023-11-19T06:59:08;23.80;;;4.90;;
13202;SDS011;6666;51.626;7.530;2023-11-19T07:01:37;24.08;;;4.40;;
13202;SDS011;6666;51.626;7.530;2023-11-19T07:04:05;24.42;;;4.30;;
13202;SDS011;6666;51.626;7.530;2023-11-19T07:06:35;29.47;;;5.20;;
13202;SDS011;6666;51.626;7.530;2023-11-19T07:09:04;25.13;;;4.43;;
13202;SDS011;6666;51.626;7.530;2023-11-19T07:11:36;20.33;;;3.95;;
13202;SDS011;6666;51.626;7.530;2023-11-19T07:14:05;30.88;;;4.32;;
13202;SDS011;6666;51.626;7.530;2023-11-19T07:16:35;24.98;;;4.40;;
13202;SDS011;6666;51.626;7.530;2023-11-19T07:19:04;28.90;;;4.83;;
13202;SDS011;6666;51.626;7.530;2023-11-19T07:21:33;21.88;;;5.10;;
13202;SDS011;6666;51.626;7.530;2023-11-19T07:24:02;32.80;;;4.97;;
13202;SDS011;6666;51.626;7.530;2023-11-19T07:26:30;23.33;;;4.63;;
13202;SDS011;6666;51.626;7.530;2023-11-19T07:28:59;23.17;;;3.80;;
13202;SDS011;6666;51.626;7.530;2023-11-19T07:31:29;19.35;;;4.15;;
13202;SDS011;6666;51.626;7.530;2023-11-19T07:33:57;21.30;;;4.20;;
13202;SDS011;6666;51.626;7.530;2023-11-19T07:36:25;21.40;;;4.50;;
13202;SDS011;6666;51.626;7.530;2023-11-19T07:38:53;21.50;;;4.13;;
13202;SDS011;6666;51.626;7.530;2023-11-19T07:41:23;16.13;;;4.20;;
13202;SDS011;6666;51.626;7.530;2023-11-19T07:43:52;23.07;;;4.93;;
13202;SDS011;6666;51.626;7.530;2023-11-19T07:46:20;25.00;;;4.70;;
13202;SDS011;6666;51.626;7.530;2023-11-19T07:48:50;17.63;;;4.32;;
13202;SDS011;6666;51.626;7.530;2023-11-19T07:51:19;28.10;;;5.00;;
13202;SDS011;6666;51.626;7.530;2023-11-19T07:53:48;26.07;;;5.20;;
13202;SDS011;6666;51.626;7.530;2023-11-19T07:56:16;29.67;;;4.07;;
13202;SDS011;6666;51.626;7.530;2023-11-19T07:58:44;27.30;;;4.40;;
13202;SDS011;6666;51.626;7.530;2023-11-19T08:01:12;26.40;;;4.47;;
13202;SDS011;6666;51.626;7.530;2023-11-19T08:03:42;25.52;;;4.30;;
13202;SDS011;6666;51.626;7.530;2023-11-19T08:06:26;30.40;;;5.40;;
13202;SDS011;6666;51.626;7.530;2023-11-19T08:08:54;28.55;;;5.30;;
13202;SDS011;6666;51.626;7.530;2023-11-19T08:11:22;24.45;;;4.65;;
13202;SDS011;6666;51.626;7.530;2023-11-19T08:13:51;18.15;;;4.15;;
13202;SDS011;6666;51.626;7.530;2023-11-19T08:16:19;31.42;;;5.40;;
13202;SDS011;6666;51.626;7.530;2023-11-19T08:18:47;26.92;;;5.07;;
13202;SDS011;6666;51.626;7.530;2023-11-19T08:21:15;16.85;;;3.85;;
13202;SDS011;6666;51.626;7.530;2023-11-19T08:23:44;25.15;;;4.93;;
13202;SDS011;6666;51.626;7.530;2023-11-19T08:26:14;26.52;;;4.53;;
13202;SDS011;6666;51.626;7.530;2023-11-19T08:28:47;21.30;;;3.80;;
13202;SDS011;6666;51.626;7.530;2023-11-19T08:31:15;17.90;;;4.38;;
13202;SDS011;6666;51.626;7.530;2023-11-19T08:33:43;24.77;;;3.90;;
13202;SDS011;6666;51.626;7.530;2023-11-19T08:36:15;19.98;;;3.85;;
13202;SDS011;6666;51.626;7.530;2023-11-19T08:38:45;24.15;;;4.65;;
13202;SDS011;6666;51.626;7.530;2023-11-19T08:41:15;27.83;;;4.20;;
13202;SDS011;6666;51.626;7.530;2023-11-19T08:43:44;22.90;;;4.45;;
13202;SDS011;6666;51.626;7.530;2023-11-19T08:46:12;23.73;;;4.40;;
13202;SDS011;6666;51.626;7.530;2023-11-19T08:48:41;28.60;;;6.45;;
13202;SDS011;6666;51.626;7.530;2023-11-19T08:51:09;24.10;;;5.43;;
13202;SDS011;6666;51.626;7.530;2023-11-19T08:53:37;24.85;;;4.20;;
13202;SDS011;6666;51.626;7.530;2023-11-19T08:56:07;28.98;;;4.85;;
13202;SDS011;6666;51.626;7.530;2023-11-19T08:58:35;25.60;;;4.53;;
13202;SDS011;6666;51.626;7.530;2023-11-19T09:01:04;24.20;;;4.60;;
13202;SDS011;6666;51.626;7.530;2023-11-19T09:03:32;22.42;;;4.15;;
13202;SDS011;6666;51.626;7.530;2023-11-19T09:06:00;26.73;;;4.53;;
13202;SDS011;6666;51.626;7.530;2023-11-19T09:08:28;31.30;;;4.13;;
13202;SDS011;6666;51.626;7.530;2023-11-19T09:10:57;26.58;;;5.03;;
13202;SDS011;6666;51.626;7.530;2023-11-19T09:13:26;24.73;;;4.63;;
13202;SDS011;6666;51.626;7.530;2023-11-19T09:15:54;33.63;;;6.22;;
13202;SDS011;6666;51.626;7.530;2023-11-19T09:18:25;26.17;;;4.80;;
13202;SDS011;6666;51.626;7.530;2023-11-19T09:20:53;26.58;;;4.50;;
13202;SDS011;6666;51.626;7.530;2023-11-19T09:23:21;26.38;;;5.25;;
13202;SDS011;6666;51.626;7.530;2023-11-19T09:25:51;23.60;;;4.90;;
13202;SDS011;6666;51.626;7.530;2023-11-19T09:28:19;23.35;;;4.47;;
13202;SDS011;6666;51.626;7.530;2023-11-19T09:30:49;28.35;;;5.18;;
13202;SDS011;6666;51.626;7.530;2023-11-19T09:33:17;25.67;;;4.65;;
13202;SDS011;6666;51.626;7.530;2023-11-19T09:35:46;27.10;;;4.80;;
13202;SDS011;6666;51.626;7.530;2023-11-19T09:38:16;29.73;;;5.07;;
13202;SDS011;6666;51.626;7.530;2023-11-19T09:40:44;23.63;;;4.60;;
13202;SDS011;6666;51.626;7.530;2023-11-19T09:43:13;26.25;;;4.40;;
13202;SDS011;6666;51.626;7.530;2023-11-19T09:45:45;22.92;;;4.93;;
13202;SDS011;6666;51.626;7.530;2023-11-19T09:48:18;21.63;;;4.68;;
13202;SDS011;6666;51.626;7.530;2023-11-19T09:50:46;26.40;;;5.40;;
13202;SDS011;6666;51.626;7.530;2023-11-19T09:53:15;25.63;;;4.40;;
13202;SDS011;6666;51.626;7.530;2023-11-19T09:55:43;21.08;;;4.35;;
13202;SDS011;6666;51.626;7.530;2023-11-19T09:58:12;23.10;;;4.85;;
13202;SDS011;6666;51.626;7.530;2023-11-19T10:00:42;23.70;;;4.28;;
13202;SDS011;6666;51.626;7.530;2023-11-19T10:03:22;24.98;;;4.85;;
13202;SDS011;6666;51.626;7.530;2023-11-19T10:05:51;20.73;;;4.43;;
13202;SDS011;6666;51.626;7.530;2023-11-19T10:08:19;24.80;;;4.18;;
13202;SDS011;6666;51.626;7.530;2023-11-19T10:10:48;25.83;;;4.90;;
13202;SDS011;6666;51.626;7.530;2023-11-19T10:13:16;23.50;;;4.40;;
13202;SDS011;6666;51.626;7.530;2023-11-19T10:15:44;26.75;;;5.03;;
13202;SDS011;6666;51.626;7.530;2023-11-19T10:18:14;19.45;;;4.25;;
13202;SDS011;6666;51.626;7.530;2023-11-19T10:20:44;27.80;;;4.80;;
13202;SDS011;6666;51.626;7.530;2023-11-19T10:23:13;25.45;;;4.30;;
13202;SDS011;6666;51.626;7.530;2023-11-19T10:25:41;27.42;;;5.90;;
13202;SDS011;6666;51.626;7.530;2023-11-19T10:28:09;28.00;;;6.30;;
13202;SDS011;6666;51.626;7.530;2023-11-19T10:30:37;21.42;;;4.55;;
13202;SDS011;6666;51.626;7.530;2023-11-19T10:33:06;24.00;;;4.30;;
13202;SDS011;6666;51.626;7.530;2023-11-19T10:35:36;19.80;;;4.70;;
13202;SDS011;6666;51.626;7.530;2023-11-19T10:38:22;26.63;;;4.93;;
13202;SDS011;6666;51.626;7.530;2023-11-19T10:40:52;24.25;;;4.68;;
13202;SDS011;6666;51.626;7.530;2023-11-19T10:43:21;26.23;;;4.35;;
13202;SDS011;6666;51.626;7.530;2023-11-19T10:45:50;21.48;;;4.45;;
13202;SDS011;6666;51.626;7.530;2023-11-19T10:48:19;21.10;;;4.53;;
13202;SDS011;6666;51.626;7.530;2023-11-19T10:50:50;25.05;;;4.72;;
13202;SDS011;6666;51.626;7.530;2023-11-19T10:53:22;27.77;;;4.07;;
13202;SDS011;6666;51.626;7.530;2023-11-19T10:55:52;28.30;;;4.80;;
13202;SDS011;6666;51.626;7.530;2023-11-19T10:58:25;21.53;;;5.30;;
13202;SDS011;6666;51.626;7.530;2023-11-19T11:00:57;18.00;;;4.05;;
13202;SDS011;6666;51.626;7.530;2023-11-19T11:03:31;25.80;;;4.40;;
13202;SDS011;6666;51.626;7.530;2023-11-19T11:06:06;23.67;;;4.95;;
13202;SDS011;6666;51.626;7.530;2023-11-19T11:08:38;25.50;;;5.03;;
13202;SDS011;6666;51.626;7.530;2023-11-19T11:11:07;26.63;;;5.88;;
13202;SDS011;6666;51.626;7.530;2023-11-19T11:13:36;28.40;;;5.28;;
13202;SDS011;6666;51.626;7.530;2023-11-19T11:16:08;29.95;;;5.13;;
13202;SDS011;6666;51.626;7.530;2023-11-19T11:18:37;27.17;;;4.55;;
13202;SDS011;6666;51.626;7.530;2023-11-19T11:21:06;33.20;;;5.40;;
13202;SDS011;6666;51.626;7.530;2023-11-19T11:24:00;22.30;;;4.70;;
13202;SDS011;6666;51.626;7.530;2023-11-19T11:26:58;27.40;;;5.10;;
13202;SDS011;6666;51.626;7.530;2023-11-19T11:29:41;23.85;;;5.32;;
13202;SDS011;6666;51.626;7.530;2023-11-19T11:32:22;33.72;;;5.53;;
13202;SDS011;6666;51.626;7.530;2023-11-19T11:37:53;36.50;;;5.22;;
13202;SDS011;6666;51.626;7.530;2023-11-19T11:40:29;24.40;;;4.30;;
13202;SDS011;6666;51.626;7.530;2023-11-19T11:42:58;27.23;;;4.70;;
13202;SDS011;6666;51.626;7.530;2023-11-19T11:45:36;22.88;;;4.70;;
13202;SDS011;6666;51.626;7.530;2023-11-19T11:48:14;20.38;;;4.20;;
13202;SDS011;6666;51.626;7.530;2023-11-19T11:50:50;26.88;;;5.18;;
13202;SDS011;6666;51.626;7.530;2023-11-19T11:53:20;21.67;;;4.28;;
13202;SDS011;6666;51.626;7.530;2023-11-19T11:55:58;22.83;;;4.60;;
13202;SDS011;6666;51.626;7.530;2023-11-19T11:58:30;24.80;;;3.83;;
13202;SDS011;6666;51.626;7.530;2023-11-19T12:01:03;21.53;;;3.93;;
13202;SDS011;6666;51.626;7.530;2023-11-19T12:03:33;20.17;;;4.40;;
13202;SDS011;6666;51.626;7.530;2023-11-19T12:06:01;22.13;;;4.03;;
13202;SDS011;6666;51.626;7.530;2023-11-19T12:08:30;16.83;;;3.72;;
13202;SDS011;6666;51.626;7.530;2023-11-19T12:11:20;26.85;;;4.60;;
13202;SDS011;6666;51.626;7.530;2023-11-19T12:13:53;22.13;;;4.70;;
13202;SDS011;6666;51.626;7.530;2023-11-19T12:16:25;28.65;;;4.43;;
13202;SDS011;6666;51.626;7.530;2023-11-19T12:18:55;23.95;;;4.00;;
13202;SDS011;6666;51.626;7.530;2023-11-19T12:21:27;20.50;;;4.18;;
13202;SDS011;6666;51.626;7.530;2023-11-19T12:23:57;32.03;;;9.40;;
13202;SDS011;6666;51.626;7.530;2023-11-19T12:26:35;20.73;;;5.10;;
13202;SDS011;6666;51.626;7.530;2023-11-19T12:29:07;21.88;;;4.53;;
13202;SDS011;6666;51.626;7.530;2023-11-19T12:31:36;18.13;;;4.40;;
13202;SDS011;6666;51.626;7.530;2023-11-19T12:34:09;17.10;;;3.75;;
13202;SDS011;6666;51.626;7.530;2023-11-19T12:36:40;22.40;;;4.68;;
13202;SDS011;6666;51.626;7.530;2023-11-19T12:39:09;24.95;;;4.72;;
13202;SDS011;6666;51.626;7.530;2023-11-19T12:41:52;18.67;;;3.97;;
13202;SDS011;6666;51.626;7.530;2023-11-19T12:44:21;23.02;;;4.32;;
13202;SDS011;6666;51.626;7.530;2023-11-19T12:46:59;22.93;;;4.27;;
13202;SDS011;6666;51.626;7.530;2023-11-19T12:49:28;21.58;;;4.50;;
13202;SDS011;6666;51.626;7.530;2023-11-19T12:51:56;19.77;;;4.22;;
13202;SDS011;6666;51.626;7.530;2023-11-19T12:54:34;17.50;;;3.50;;
13202;SDS011;6666;51.626;7.530;2023-11-19T12:57:04;21.83;;;4.07;;
13202;SDS011;6666;51.626;7.530;2023-11-19T12:59:32;21.92;;;4.47;;
13202;SDS011;6666;51.626;7.530;2023-11-19T13:02:01;19.73;;;4.00;;
13202;SDS011;6666;51.626;7.530;2023-11-19T13:04:32;27.17;;;4.70;;
13202;SDS011;6666;51.626;7.530;2023-11-19T13:07:01;17.90;;;4.50;;
13202;SDS011;6666;51.626;7.530;2023-11-19T13:09:31;15.68;;;4.18;;
13202;SDS011;6666;51.626;7.530;2023-11-19T13:12:11;21.42;;;3.90;;
13202;SDS011;6666;51.626;7.530;2023-11-19T13:14:42;24.25;;;4.30;;
13202;SDS011;6666;51.626;7.530;2023-11-19T13:17:15;23.08;;;5.32;;
13202;SDS011;6666;51.626;7.530;2023-11-19T13:19:43;25.10;;;5.45;;
13202;SDS011;6666;51.626;7.530;2023-11-19T13:22:14;20.07;;;4.70;;
13202;SDS011;6666;51.626;7.530;2023-11-19T13:24:42;22.65;;;4.43;;
13202;SDS011;6666;51.626;7.530;2023-11-19T13:27:10;20.75;;;4.47;;
13202;SDS011;6666;51.626;7.530;2023-11-19T13:29:39;24.08;;;4.13;;
13202;SDS011;6666;51.626;7.530;2023-11-19T13:32:08;22.65;;;5.10;;
13202;SDS011;6666;51.626;7.530;2023-11-19T13:34:36;25.60;;;4.50;;
13202;SDS011;6666;51.626;7.530;2023-11-19T13:37:04;24.50;;;4.78;;
13202;SDS011;6666;51.626;7.530;2023-11-19T13:39:32;28.30;;;5.28;;
13202;SDS011;6666;51.626;7.530;2023-11-19T13:42:00;22.48;;;4.50;;
13202;SDS011;6666;51.626;7.530;2023-11-19T13:44:31;24.27;;;4.33;;
13202;SDS011;6666;51.626;7.530;2023-11-19T13:47:01;18.00;;;3.90;;
13202;SDS011;6666;51.626;7.530;2023-11-19T13:49:29;25.85;;;3.58;;
13202;SDS011;6666;51.626;7.530;2023-11-19T13:51:58;25.30;;;4.38;;
13202;SDS011;6666;51.626;7.530;2023-11-19T13:54:26;19.52;;;4.40;;
13202;SDS011;6666;51.626;7.530;2023-11-19T13:56:54;17.58;;;4.55;;
13202;SDS011;6666;51.626;7.530;2023-11-19T13:59:24;19.60;;;4.55;;
13202;SDS011;6666;51.626;7.530;2023-11-19T14:01:52;16.77;;;4.10;;
13202;SDS011;6666;51.626;7.530;2023-11-19T14:04:22;15.63;;;4.00;;
13202;SDS011;6666;51.626;7.530;2023-11-19T14:06:51;18.70;;;3.10;;
13202;SDS011;6666;51.626;7.530;2023-11-19T14:09:21;17.98;;;4.40;;
13202;SDS011;6666;51.626;7.530;2023-11-19T14:11:49;19.90;;;4.20;;
13202;SDS011;6666;51.626;7.530;2023-11-19T14:14:18;14.95;;;3.45;;
13202;SDS011;6666;51.626;7.530;2023-11-19T14:16:46;22.02;;;3.63;;
13202;SDS011;6666;51.626;7.530;2023-11-19T14:19:14;19.20;;;3.60;;
13202;SDS011;6666;51.626;7.530;2023-11-19T14:21:44;18.58;;;3.80;;
13202;SDS011;6666;51.626;7.530;2023-11-19T14:24:13;17.98;;;3.60;;
13202;SDS011;6666;51.626;7.530;2023-11-19T14:26:42;20.95;;;4.07;;
13202;SDS011;6666;51.626;7.530;2023-11-19T14:29:10;22.08;;;4.35;;
13202;SDS011;6666;51.626;7.530;2023-11-19T14:31:38;15.73;;;3.20;;
13202;SDS011;6666;51.626;7.530;2023-11-19T14:34:06;19.75;;;3.83;;
13202;SDS011;6666;51.626;7.530;2023-11-19T14:36:35;23.42;;;4.18;;
13202;SDS011;6666;51.626;7.530;2023-11-19T14:39:04;20.83;;;4.20;;
13202;SDS011;6666;51.626;7.530;2023-11-19T14:41:33;16.75;;;4.40;;
13202;SDS011;6666;51.626;7.530;2023-11-19T14:44:01;18.80;;;3.80;;
13202;SDS011;6666;51.626;7.530;2023-11-19T14:46:30;14.90;;;4.00;;
13202;SDS011;6666;51.626;7.530;2023-11-19T14:48:58;18.35;;;3.38;;
13202;SDS011;6666;51.626;7.530;2023-11-19T14:51:26;22.60;;;3.97;;
13202;SDS011;6666;51.626;7.530;2023-11-19T14:53:55;17.50;;;3.67;;
13202;SDS011;6666;51.626;7.530;2023-11-19T14:56:24;21.10;;;4.95;;
13202;SDS011;6666;51.626;7.530;2023-11-19T14:58:52;20.73;;;4.20;;
13202;SDS011;6666;51.626;7.530;2023-11-19T15:01:20;24.02;;;4.00;;
13202;SDS011;6666;51.626;7.530;2023-11-19T15:03:49;23.88;;;4.03;;
13202;SDS011;6666;51.626;7.530;2023-11-19T15:06:22;18.50;;;3.47;;
13202;SDS011;6666;51.626;7.530;2023-11-19T15:08:52;13.25;;;3.40;;